Terminal Aerodrome Forecast
Issued by NWS Jackson, MS

Home | Current Version | Previous Version | Text Only | Print | Product List | Glossary On
Versions: 1 2 3 4 5 6 7 8 9 10 11 12
000
FTUS44 KJAN 011100
TAFMEI
TAF
KMEI 011120Z 0112/0212 35003KT P6SM OVC100
     FM011500 33006KT P6SM SCT070 BKN090
     FM020000 36003KT P6SM OVC100
     FM020800 00000KT 5SM BR OVC050=

USA.gov is the U.S. government's official web portal to all federal, state and local government web resources and services.